sensor_id;sensor_type;location;lat;lon;timestamp;pressure;altitude;pressure_sealevel;temperature;humidity
52855;BME280;38719;51.418;7.286;2023-02-28T00:00:53;101169.28;;;3.93;54.67
52855;BME280;38719;51.418;7.286;2023-02-28T00:03:20;101166.63;;;3.95;55.07
52855;BME280;38719;51.418;7.286;2023-02-28T00:05:48;101171.03;;;3.86;55.42
52855;BME280;38719;51.418;7.286;2023-02-28T00:08:15;101168.41;;;3.86;54.86
52855;BME280;38719;51.418;7.286;2023-02-28T00:10:43;101176.25;;;3.71;55.84
52855;BME280;38719;51.418;7.286;2023-02-28T00:13:12;101171.03;;;3.90;55.28
52855;BME280;38719;51.418;7.286;2023-02-28T00:15:39;101173.69;;;3.93;54.76
52855;BME280;38719;51.418;7.286;2023-02-28T00:18:06;101172.78;;;3.91;55.19
52855;BME280;38719;51.418;7.286;2023-02-28T00:20:34;101177.13;;;3.68;55.45
52855;BME280;38719;51.418;7.286;2023-02-28T00:23:01;101170.13;;;3.80;55.63
52855;BME280;38719;51.418;7.286;2023-02-28T00:25:29;101173.66;;;3.80;54.91
52855;BME280;38719;51.418;7.286;2023-02-28T00:27:56;101165.75;;;3.73;55.23
52855;BME280;38719;51.418;7.286;2023-02-28T00:30:25;101171.00;;;3.68;55.61
52855;BME280;38719;51.418;7.286;2023-02-28T00:32:52;101172.72;;;3.66;55.68
52855;BME280;38719;51.418;7.286;2023-02-28T00:35:20;101172.72;;;3.64;55.83
52855;BME280;38719;51.418;7.286;2023-02-28T00:37:47;101173.56;;;3.59;55.56
52855;BME280;38719;51.418;7.286;2023-02-28T00:40:15;101171.81;;;3.58;56.26
52855;BME280;38719;51.418;7.286;2023-02-28T00:42:43;101172.69;;;3.55;56.12
52855;BME280;38719;51.418;7.286;2023-02-28T00:45:10;101161.28;;;3.56;56.26
52855;BME280;38719;51.418;7.286;2023-02-28T00:47:39;101163.91;;;3.53;56.50
52855;BME280;38719;51.418;7.286;2023-02-28T00:50:08;101169.19;;;3.58;55.57
52855;BME280;38719;51.418;7.286;2023-02-28T00:52:36;101173.59;;;3.55;55.98
52855;BME280;38719;51.418;7.286;2023-02-28T00:55:04;101167.41;;;3.46;55.97
52855;BME280;38719;51.418;7.286;2023-02-28T00:57:32;101174.41;;;3.42;55.71
52855;BME280;38719;51.418;7.286;2023-02-28T00:59:59;101184.94;;;3.42;56.08
52855;BME280;38719;51.418;7.286;2023-02-28T01:02:27;101186.69;;;3.35;56.54
52855;BME280;38719;51.418;7.286;2023-02-28T01:04:56;101180.50;;;3.32;56.28
52855;BME280;38719;51.418;7.286;2023-02-28T01:07:24;101185.78;;;3.32;56.69
52855;BME280;38719;51.418;7.286;2023-02-28T01:09:51;101177.88;;;3.33;56.34
52855;BME280;38719;51.418;7.286;2023-02-28T01:12:18;101184.88;;;3.31;56.81
52855;BME280;38719;51.418;7.286;2023-02-28T01:14:46;101177.84;;;3.27;56.18
52855;BME280;38719;51.418;7.286;2023-02-28T01:17:13;101180.47;;;3.19;56.96
52855;BME280;38719;51.418;7.286;2023-02-28T01:19:41;101178.69;;;3.21;56.61
52855;BME280;38719;51.418;7.286;2023-02-28T01:22:10;101183.06;;;3.13;56.54
52855;BME280;38719;51.418;7.286;2023-02-28T01:24:37;101183.91;;;3.04;57.10
52855;BME280;38719;51.418;7.286;2023-02-28T01:27:04;101179.47;;;3.00;57.26
52855;BME280;38719;51.418;7.286;2023-02-28T01:29:32;101179.47;;;2.97;57.10
52855;BME280;38719;51.418;7.286;2023-02-28T01:31:59;101178.56;;;2.94;57.26
52855;BME280;38719;51.418;7.286;2023-02-28T01:34:27;101175.03;;;2.90;57.65
52855;BME280;38719;51.418;7.286;2023-02-28T01:36:54;101179.38;;;2.89;57.35
52855;BME280;38719;51.418;7.286;2023-02-28T01:39:26;101182.06;;;2.93;57.70
52855;BME280;38719;51.418;7.286;2023-02-28T01:41:54;101171.50;;;2.88;57.73
52855;BME280;38719;51.418;7.286;2023-02-28T01:44:57;101174.09;;;2.82;57.63
52855;BME280;38719;51.418;7.286;2023-02-28T01:47:27;101168.81;;;2.82;57.88
52855;BME280;38719;51.418;7.286;2023-02-28T01:49:56;101161.75;;;2.74;57.56
52855;BME280;38719;51.418;7.286;2023-02-28T01:52:24;101158.25;;;2.74;57.66
52855;BME280;38719;51.418;7.286;2023-02-28T01:54:59;101154.72;;;2.70;57.83
52855;BME280;38719;51.418;7.286;2023-02-28T01:57:29;101149.47;;;2.72;58.04
52855;BME280;38719;51.418;7.286;2023-02-28T02:00:07;101153.81;;;2.68;58.20
52855;BME280;38719;51.418;7.286;2023-02-28T02:02:41;101155.59;;;2.68;57.91
52855;BME280;38719;51.418;7.286;2023-02-28T02:05:12;101150.28;;;2.62;57.80
52855;BME280;38719;51.418;7.286;2023-02-28T02:07:43;101155.50;;;2.58;57.96
52855;BME280;38719;51.418;7.286;2023-02-28T02:10:15;101152.88;;;2.57;58.08
52855;BME280;38719;51.418;7.286;2023-02-28T02:13:01;101152.91;;;2.62;58.05
52855;BME280;38719;51.418;7.286;2023-02-28T02:15:34;101149.38;;;2.58;57.73
52855;BME280;38719;51.418;7.286;2023-02-28T02:18:09;101143.25;;;2.57;57.73
52855;BME280;38719;51.418;7.286;2023-02-28T02:20:55;101147.63;;;2.54;58.10
52855;BME280;38719;51.418;7.286;2023-02-28T02:23:54;101144.09;;;2.52;58.16
52855;BME280;38719;51.418;7.286;2023-02-28T02:26:41;101144.94;;;2.49;58.24
52855;BME280;38719;51.418;7.286;2023-02-28T02:29:31;101137.91;;;2.45;58.37
52855;BME280;38719;51.418;7.286;2023-02-28T02:32:15;101139.59;;;2.40;58.79
52855;BME280;38719;51.418;7.286;2023-02-28T02:34:54;101137.88;;;2.40;58.52
52855;BME280;38719;51.418;7.286;2023-02-28T02:37:32;101135.19;;;2.34;58.43
52855;BME280;38719;51.418;7.286;2023-02-28T02:40:10;101133.38;;;2.29;58.95
52855;BME280;38719;51.418;7.286;2023-02-28T02:42:41;101133.44;;;2.32;59.00
52855;BME280;38719;51.418;7.286;2023-02-28T02:45:16;101142.16;;;2.29;59.04
52855;BME280;38719;51.418;7.286;2023-02-28T02:47:46;101141.31;;;2.32;58.75
52855;BME280;38719;51.418;7.286;2023-02-28T02:50:20;101138.59;;;2.24;58.53
52855;BME280;38719;51.418;7.286;2023-02-28T02:52:52;101135.97;;;2.22;58.80
52855;BME280;38719;51.418;7.286;2023-02-28T02:55:23;101143.84;;;2.21;58.98
52855;BME280;38719;51.418;7.286;2023-02-28T02:57:52;101143.84;;;2.22;59.24
52855;BME280;38719;51.418;7.286;2023-02-28T03:00:24;101134.28;;;2.31;58.86
52855;BME280;38719;51.418;7.286;2023-02-28T03:02:54;101139.53;;;2.31;58.85
52855;BME280;38719;51.418;7.286;2023-02-28T03:05:26;101147.47;;;2.38;58.89
52855;BME280;38719;51.418;7.286;2023-02-28T03:07:55;101145.72;;;2.36;58.83
52855;BME280;38719;51.418;7.286;2023-02-28T03:10:34;101148.34;;;2.33;59.36
52855;BME280;38719;51.418;7.286;2023-02-28T03:13:12;101144.03;;;2.44;59.06
52855;BME280;38719;51.418;7.286;2023-02-28T03:15:57;101148.44;;;2.48;58.95
52855;BME280;38719;51.418;7.286;2023-02-28T03:18:32;101147.53;;;2.43;58.72
52855;BME280;38719;51.418;7.286;2023-02-28T03:21:11;101144.06;;;2.50;58.58
52855;BME280;38719;51.418;7.286;2023-02-28T03:23:45;101144.06;;;2.50;58.29
52855;BME280;38719;51.418;7.286;2023-02-28T03:26:19;101141.41;;;2.47;58.44
52855;BME280;38719;51.418;7.286;2023-02-28T03:28:53;101134.38;;;2.45;58.48
52855;BME280;38719;51.418;7.286;2023-02-28T03:31:27;101148.44;;;2.45;57.83
52855;BME280;38719;51.418;7.286;2023-02-28T03:34:01;101135.25;;;2.44;57.74
52855;BME280;38719;51.418;7.286;2023-02-28T03:36:36;101137.88;;;2.42;58.02
52855;BME280;38719;51.418;7.286;2023-02-28T03:39:13;101136.97;;;2.38;57.42
52855;BME280;38719;51.418;7.286;2023-02-28T03:41:43;101129.03;;;2.31;57.54
52855;BME280;38719;51.418;7.286;2023-02-28T03:44:18;101137.78;;;2.27;57.63
52855;BME280;38719;51.418;7.286;2023-02-28T03:46:52;101139.44;;;2.21;57.75
52855;BME280;38719;51.418;7.286;2023-02-28T03:49:24;101137.69;;;2.17;57.48
52855;BME280;38719;51.418;7.286;2023-02-28T03:51:56;101141.16;;;2.16;57.22
52855;BME280;38719;51.418;7.286;2023-02-28T03:54:29;101143.75;;;2.12;57.22
52855;BME280;38719;51.418;7.286;2023-02-28T03:57:02;101136.72;;;2.07;57.04
52855;BME280;38719;51.418;7.286;2023-02-28T03:59:34;101136.66;;;2.03;57.01
52855;BME280;38719;51.418;7.286;2023-02-28T04:02:04;101134.09;;;2.07;56.88
52855;BME280;38719;51.418;7.286;2023-02-28T04:04:32;101141.97;;;2.09;56.85
52855;BME280;38719;51.418;7.286;2023-02-28T04:07:05;101135.81;;;2.02;57.22
52855;BME280;38719;51.418;7.286;2023-02-28T04:09:34;101139.34;;;2.06;57.10
52855;BME280;38719;51.418;7.286;2023-02-28T04:12:01;101139.28;;;2.00;56.38
52855;BME280;38719;51.418;7.286;2023-02-28T04:14:29;101138.38;;;1.98;56.97
52855;BME280;38719;51.418;7.286;2023-02-28T04:16:56;101140.16;;;2.00;57.20
52855;BME280;38719;51.418;7.286;2023-02-28T04:19:24;101138.38;;;1.99;57.52
52855;BME280;38719;51.418;7.286;2023-02-28T04:21:52;101143.63;;;1.98;57.73
52855;BME280;38719;51.418;7.286;2023-02-28T04:24:23;101139.25;;;1.97;57.64
52855;BME280;38719;51.418;7.286;2023-02-28T04:26:52;101147.13;;;1.97;57.53
52855;BME280;38719;51.418;7.286;2023-02-28T04:29:23;101144.50;;;1.97;57.66
52855;BME280;38719;51.418;7.286;2023-02-28T04:31:50;101141.84;;;1.95;57.75
52855;BME280;38719;51.418;7.286;2023-02-28T04:34:19;101148.00;;;1.96;57.58
52855;BME280;38719;51.418;7.286;2023-02-28T04:36:47;101142.72;;;1.92;57.64
52855;BME280;38719;51.418;7.286;2023-02-28T04:39:38;101154.94;;;1.87;57.46
52855;BME280;38719;51.418;7.286;2023-02-28T04:42:06;101162.75;;;1.81;58.11
52855;BME280;38719;51.418;7.286;2023-02-28T04:44:33;101154.94;;;1.90;56.86
52855;BME280;38719;51.418;7.286;2023-02-28T04:47:01;101156.63;;;1.82;56.97
52855;BME280;38719;51.418;7.286;2023-02-28T04:49:28;101162.75;;;1.80;57.43
52855;BME280;38719;51.418;7.286;2023-02-28T04:51:56;101160.91;;;1.72;57.58
52855;BME280;38719;51.418;7.286;2023-02-28T04:54:23;101163.41;;;1.61;57.76
52855;BME280;38719;51.418;7.286;2023-02-28T04:56:52;101154.66;;;1.63;58.04
52855;BME280;38719;51.418;7.286;2023-02-28T04:59:21;101160.00;;;1.69;57.95
52855;BME280;38719;51.418;7.286;2023-02-28T05:01:48;101163.53;;;1.71;57.47
52855;BME280;38719;51.418;7.286;2023-02-28T05:04:16;101155.59;;;1.66;57.67
52855;BME280;38719;51.418;7.286;2023-02-28T05:06:44;101158.22;;;1.66;57.45
52855;BME280;38719;51.418;7.286;2023-02-28T05:09:12;101161.69;;;1.65;57.90
52855;BME280;38719;51.418;7.286;2023-02-28T05:11:40;101166.09;;;1.68;57.55
52855;BME280;38719;51.418;7.286;2023-02-28T05:14:11;101166.03;;;1.60;57.78
52855;BME280;38719;51.418;7.286;2023-02-28T05:16:39;101169.53;;;1.62;57.88
52855;BME280;38719;51.418;7.286;2023-02-28T05:19:07;101172.16;;;1.60;57.89
52855;BME280;38719;51.418;7.286;2023-02-28T05:21:36;101165.13;;;1.59;57.68
52855;BME280;38719;51.418;7.286;2023-02-28T05:24:05;101176.47;;;1.54;57.90
52855;BME280;38719;51.418;7.286;2023-02-28T05:26:35;101173.75;;;1.48;58.10
52855;BME280;38719;51.418;7.286;2023-02-28T05:29:03;101169.31;;;1.42;58.16
52855;BME280;38719;51.418;7.286;2023-02-28T05:31:32;101173.63;;;1.37;58.45
52855;BME280;38719;51.418;7.286;2023-02-28T05:34:00;101177.09;;;1.36;58.54
52855;BME280;38719;51.418;7.286;2023-02-28T05:36:30;101178.81;;;1.32;58.13
52855;BME280;38719;51.418;7.286;2023-02-28T05:38:58;101183.19;;;1.30;58.01
52855;BME280;38719;51.418;7.286;2023-02-28T05:41:26;101182.34;;;1.33;58.43
52855;BME280;38719;51.418;7.286;2023-02-28T05:43:54;101190.28;;;1.39;58.13
52855;BME280;38719;51.418;7.286;2023-02-28T05:46:22;101190.22;;;1.36;57.88
52855;BME280;38719;51.418;7.286;2023-02-28T05:48:51;101199.03;;;1.39;57.99
52855;BME280;38719;51.418;7.286;2023-02-28T05:51:18;101191.16;;;1.41;57.82
52855;BME280;38719;51.418;7.286;2023-02-28T05:53:46;101192.91;;;1.39;58.05
52855;BME280;38719;51.418;7.286;2023-02-28T05:56:14;101187.69;;;1.42;57.87
52855;BME280;38719;51.418;7.286;2023-02-28T05:58:42;101186.72;;;1.34;57.92
52855;BME280;38719;51.418;7.286;2023-02-28T06:01:20;101193.78;;;1.39;58.01
52855;BME280;38719;51.418;7.286;2023-02-28T06:03:49;101192.91;;;1.39;58.16
52855;BME280;38719;51.418;7.286;2023-02-28T06:06:18;101194.63;;;1.37;58.00
52855;BME280;38719;51.418;7.286;2023-02-28T06:08:45;101198.09;;;1.36;58.34
52855;BME280;38719;51.418;7.286;2023-02-28T06:11:13;101200.66;;;1.31;58.05
52855;BME280;38719;51.418;7.286;2023-02-28T06:13:41;101203.16;;;1.20;58.08
52855;BME280;38719;51.418;7.286;2023-02-28T06:16:10;101202.19;;;1.15;58.77
52855;BME280;38719;51.418;7.286;2023-02-28T06:18:38;101209.19;;;1.15;58.49
52855;BME280;38719;51.418;7.286;2023-02-28T06:21:06;101205.63;;;1.09;58.59
52855;BME280;38719;51.418;7.286;2023-02-28T06:23:36;101213.53;;;1.12;58.60
52855;BME280;38719;51.418;7.286;2023-02-28T06:26:04;101218.75;;;1.08;58.70
52855;BME280;38719;51.418;7.286;2023-02-28T06:28:31;101218.81;;;1.14;58.89
52855;BME280;38719;51.418;7.286;2023-02-28T06:30:59;101215.22;;;1.09;59.03
52855;BME280;38719;51.418;7.286;2023-02-28T06:33:26;101213.41;;;1.03;58.79
52855;BME280;38719;51.418;7.286;2023-02-28T06:35:54;101218.66;;;1.02;59.00
52855;BME280;38719;51.418;7.286;2023-02-28T06:38:21;101219.50;;;1.01;59.37
52855;BME280;38719;51.418;7.286;2023-02-28T06:40:54;101223.91;;;1.02;59.24
52855;BME280;38719;51.418;7.286;2023-02-28T06:43:23;101216.81;;;0.98;59.50
52855;BME280;38719;51.418;7.286;2023-02-28T06:45:53;101227.31;;;0.98;59.33
52855;BME280;38719;51.418;7.286;2023-02-28T06:48:21;101223.91;;;1.03;59.56
52855;BME280;38719;51.418;7.286;2023-02-28T06:50:49;101225.69;;;1.06;59.40
52855;BME280;38719;51.418;7.286;2023-02-28T06:53:17;101229.25;;;1.11;59.26
52855;BME280;38719;51.418;7.286;2023-02-28T06:55:44;101229.25;;;1.11;59.51
52855;BME280;38719;51.418;7.286;2023-02-28T06:58:13;101241.53;;;1.12;59.67
52855;BME280;38719;51.418;7.286;2023-02-28T07:00:45;101232.81;;;1.13;59.61
52855;BME280;38719;51.418;7.286;2023-02-28T07:03:13;101233.75;;;1.18;59.84
52855;BME280;38719;51.418;7.286;2023-02-28T07:05:41;101234.69;;;1.25;59.73
52855;BME280;38719;51.418;7.286;2023-02-28T07:08:09;101244.34;;;1.27;59.85
52855;BME280;38719;51.418;7.286;2023-02-28T07:10:37;101231.28;;;1.31;59.17
52855;BME280;38719;51.418;7.286;2023-02-28T07:13:06;101239.25;;;1.38;59.79
52855;BME280;38719;51.418;7.286;2023-02-28T07:15:36;101236.75;;;1.46;59.41
52855;BME280;38719;51.418;7.286;2023-02-28T07:18:07;101233.25;;;1.47;59.28
52855;BME280;38719;51.418;7.286;2023-02-28T07:20:35;101237.72;;;1.54;58.96
52855;BME280;38719;51.418;7.286;2023-02-28T07:23:02;101246.56;;;1.61;59.16
52855;BME280;38719;51.418;7.286;2023-02-28T07:25:30;101238.72;;;1.66;59.00
52855;BME280;38719;51.418;7.286;2023-02-28T07:27:57;101246.66;;;1.67;58.90
52855;BME280;38719;51.418;7.286;2023-02-28T07:30:26;101245.81;;;1.70;58.74
52855;BME280;38719;51.418;7.286;2023-02-28T07:32:55;101245.81;;;1.73;58.46
52855;BME280;38719;51.418;7.286;2023-02-28T07:35:23;101246.72;;;1.75;58.58
52855;BME280;38719;51.418;7.286;2023-02-28T07:37:50;101243.28;;;1.81;58.32
52855;BME280;38719;51.418;7.286;2023-02-28T07:40:18;101252.06;;;1.84;58.40
52855;BME280;38719;51.418;7.286;2023-02-28T07:42:45;101244.25;;;1.87;58.24
52855;BME280;38719;51.418;7.286;2023-02-28T07:45:13;101246.03;;;1.91;58.21
52855;BME280;38719;51.418;7.286;2023-02-28T07:47:42;101244.31;;;1.93;57.95
52855;BME280;38719;51.418;7.286;2023-02-28T07:50:12;101246.09;;;1.95;58.29
52855;BME280;38719;51.418;7.286;2023-02-28T07:52:41;101245.31;;;2.03;58.28
52855;BME280;38719;51.418;7.286;2023-02-28T07:55:09;101259.38;;;2.08;57.20
52855;BME280;38719;51.418;7.286;2023-02-28T07:57:37;101252.47;;;2.20;57.76
52855;BME280;38719;51.418;7.286;2023-02-28T08:00:07;101253.44;;;2.27;57.46
52855;BME280;38719;51.418;7.286;2023-02-28T08:02:38;101249.97;;;2.32;56.87
52855;BME280;38719;51.418;7.286;2023-02-28T08:05:07;101257.91;;;2.35;57.02
52855;BME280;38719;51.418;7.286;2023-02-28T08:07:36;101260.59;;;2.46;57.38
52855;BME280;38719;51.418;7.286;2023-02-28T08:10:04;101260.66;;;2.49;56.80
52855;BME280;38719;51.418;7.286;2023-02-28T08:12:32;101257.22;;;2.60;56.30
52855;BME280;38719;51.418;7.286;2023-02-28T08:15:00;101266.03;;;2.65;56.39
52855;BME280;38719;51.418;7.286;2023-02-28T08:17:27;101253.81;;;2.71;56.61
52855;BME280;38719;51.418;7.286;2023-02-28T08:19:55;101257.41;;;2.80;56.51
52855;BME280;38719;51.418;7.286;2023-02-28T08:22:22;101257.41;;;2.84;56.33
52855;BME280;38719;51.418;7.286;2023-02-28T08:24:51;101253.97;;;2.92;55.72
52855;BME280;38719;51.418;7.286;2023-02-28T08:27:18;101259.28;;;2.95;56.35
52855;BME280;38719;51.418;7.286;2023-02-28T08:29:46;101258.41;;;2.97;56.33
52855;BME280;38719;51.418;7.286;2023-02-28T08:32:14;101256.69;;;3.04;55.50
52855;BME280;38719;51.418;7.286;2023-02-28T08:34:55;101258.47;;;3.06;55.60
52855;BME280;38719;51.418;7.286;2023-02-28T08:37:22;101253.22;;;3.10;55.78
52855;BME280;38719;51.418;7.286;2023-02-28T08:39:51;101249.72;;;3.11;54.69
52855;BME280;38719;51.418;7.286;2023-02-28T08:42:21;101257.66;;;3.17;54.60
52855;BME280;38719;51.418;7.286;2023-02-28T08:44:49;101261.22;;;3.27;53.63
52855;BME280;38719;51.418;7.286;2023-02-28T08:47:16;101262.97;;;3.25;53.94
52855;BME280;38719;51.418;7.286;2023-02-28T08:49:44;101261.22;;;3.27;54.04
52855;BME280;38719;51.418;7.286;2023-02-28T08:52:12;101260.34;;;3.23;54.05
52855;BME280;38719;51.418;7.286;2023-02-28T08:54:40;101254.22;;;3.29;54.02
52855;BME280;38719;51.418;7.286;2023-02-28T08:57:08;101255.91;;;3.19;53.93
52855;BME280;38719;51.418;7.286;2023-02-28T08:59:36;101255.06;;;3.26;54.56
52855;BME280;38719;51.418;7.286;2023-02-28T09:02:03;101257.75;;;3.31;54.30
52855;BME280;38719;51.418;7.286;2023-02-28T09:04:31;101262.19;;;3.41;54.12
52855;BME280;38719;51.418;7.286;2023-02-28T09:06:59;101257.78;;;3.38;54.04
52855;BME280;38719;51.418;7.286;2023-02-28T09:09:26;101250.81;;;3.48;54.02
52855;BME280;38719;51.418;7.286;2023-02-28T09:11:55;101255.25;;;3.54;53.28
52855;BME280;38719;51.418;7.286;2023-02-28T09:14:24;101258.75;;;3.56;53.14
52855;BME280;38719;51.418;7.286;2023-02-28T09:16:51;101253.50;;;3.59;52.83
52855;BME280;38719;51.418;7.286;2023-02-28T09:19:19;101249.06;;;3.50;53.08
52855;BME280;38719;51.418;7.286;2023-02-28T09:21:46;101252.56;;;3.49;52.40
52855;BME280;38719;51.418;7.286;2023-02-28T09:24:14;101255.28;;;3.60;51.73
52855;BME280;38719;51.418;7.286;2023-02-28T09:26:41;101249.06;;;3.50;51.78
52855;BME280;38719;51.418;7.286;2023-02-28T09:29:30;101247.38;;;3.63;51.48
52855;BME280;38719;51.418;7.286;2023-02-28T09:31:57;101250.03;;;3.77;51.09
52855;BME280;38719;51.418;7.286;2023-02-28T09:34:26;101248.25;;;3.67;51.05
52855;BME280;38719;51.418;7.286;2023-02-28T09:36:53;101247.34;;;3.65;50.83
52855;BME280;38719;51.418;7.286;2023-02-28T09:39:22;101247.47;;;3.85;50.61
52855;BME280;38719;51.418;7.286;2023-02-28T09:41:51;101243.97;;;3.95;48.93
52855;BME280;38719;51.418;7.286;2023-02-28T09:44:24;101250.97;;;3.92;49.96
52855;BME280;38719;51.418;7.286;2023-02-28T09:46:59;101250.97;;;3.95;49.75
52855;BME280;38719;51.418;7.286;2023-02-28T09:49:34;101258.03;;;3.91;49.54
52855;BME280;38719;51.418;7.286;2023-02-28T09:52:09;101251.94;;;4.12;49.01
52855;BME280;38719;51.418;7.286;2023-02-28T09:54:37;101250.16;;;4.19;49.22
52855;BME280;38719;51.418;7.286;2023-02-28T09:57:08;101245.78;;;4.16;48.52
52855;BME280;38719;51.418;7.286;2023-02-28T09:59:50;101254.53;;;4.00;48.86
52855;BME280;38719;51.418;7.286;2023-02-28T10:02:38;101251.00;;;3.98;48.20
52855;BME280;38719;51.418;7.286;2023-02-28T10:05:11;101253.66;;;4.01;49.08
52855;BME280;38719;51.418;7.286;2023-02-28T10:07:50;101259.84;;;4.12;48.03
52855;BME280;38719;51.418;7.286;2023-02-28T10:10:24;101248.38;;;3.99;47.82
52855;BME280;38719;51.418;7.286;2023-02-28T10:12:55;101240.50;;;4.15;47.54
52855;BME280;38719;51.418;7.286;2023-02-28T10:15:29;101245.78;;;4.23;47.02
52855;BME280;38719;51.418;7.286;2023-02-28T10:18:00;101243.16;;;4.26;46.71
52855;BME280;38719;51.418;7.286;2023-02-28T10:20:37;101246.69;;;4.39;46.08
52855;BME280;38719;51.418;7.286;2023-02-28T10:23:13;101238.81;;;4.56;46.04
52855;BME280;38719;51.418;7.286;2023-02-28T10:25:47;101242.28;;;4.64;45.85
52855;BME280;38719;51.418;7.286;2023-02-28T10:28:17;101233.50;;;4.66;46.16
52855;BME280;38719;51.418;7.286;2023-02-28T10:30:47;101235.25;;;4.84;46.42
52855;BME280;38719;51.418;7.286;2023-02-28T10:33:23;101230.00;;;4.60;45.78
52855;BME280;38719;51.418;7.286;2023-02-28T10:35:52;101225.59;;;4.71;45.10
52855;BME280;38719;51.418;7.286;2023-02-28T10:38:22;101225.59;;;4.77;44.72
52855;BME280;38719;51.418;7.286;2023-02-28T10:40:51;101224.69;;;4.74;44.22
52855;BME280;38719;51.418;7.286;2023-02-28T10:43:21;101218.56;;;4.51;43.54
52855;BME280;38719;51.418;7.286;2023-02-28T10:46:12;101222.09;;;4.75;43.43
52855;BME280;38719;51.418;7.286;2023-02-28T10:48:44;101208.84;;;4.98;43.74
52855;BME280;38719;51.418;7.286;2023-02-28T10:51:15;101204.47;;;4.82;41.85
52855;BME280;38719;51.418;7.286;2023-02-28T10:53:48;101206.25;;;4.71;42.22
52855;BME280;38719;51.418;7.286;2023-02-28T10:56:28;101211.50;;;4.80;43.66
52855;BME280;38719;51.418;7.286;2023-02-28T10:58:59;101215.88;;;4.99;42.06
52855;BME280;38719;51.418;7.286;2023-02-28T11:01:35;101217.66;;;5.05;42.75
52855;BME280;38719;51.418;7.286;2023-02-28T11:04:16;101210.59;;;5.04;41.56
52855;BME280;38719;51.418;7.286;2023-02-28T11:06:44;101207.97;;;4.92;41.56
52855;BME280;38719;51.418;7.286;2023-02-28T11:09:21;101211.50;;;4.91;41.51
52855;BME280;38719;51.418;7.286;2023-02-28T11:11:50;101204.47;;;4.93;40.97
52855;BME280;38719;51.418;7.286;2023-02-28T11:14:21;101204.41;;;5.18;41.64
52855;BME280;38719;51.418;7.286;2023-02-28T11:16:50;101202.59;;;5.29;41.50
52855;BME280;38719;51.418;7.286;2023-02-28T11:19:22;101200.84;;;5.26;41.08
52855;BME280;38719;51.418;7.286;2023-02-28T11:21:55;101202.53;;;5.49;41.29
52855;BME280;38719;51.418;7.286;2023-02-28T11:24:27;101195.50;;;5.49;40.54
52855;BME280;38719;51.418;7.286;2023-02-28T11:26:55;101210.47;;;5.44;41.08
52855;BME280;38719;51.418;7.286;2023-02-28T11:29:25;101197.25;;;5.47;40.43
52855;BME280;38719;51.418;7.286;2023-02-28T11:32:12;101203.50;;;5.25;40.90
52855;BME280;38719;51.418;7.286;2023-02-28T11:34:42;101200.84;;;5.32;40.50
52855;BME280;38719;51.418;7.286;2023-02-28T11:37:12;101203.38;;;5.62;40.66
52855;BME280;38719;51.418;7.286;2023-02-28T11:39:40;101199.81;;;5.63;41.39
52855;BME280;38719;51.418;7.286;2023-02-28T11:42:23;101191.75;;;5.95;40.52
52855;BME280;38719;51.418;7.286;2023-02-28T11:45:15;101194.38;;;5.95;40.72
52855;BME280;38719;51.418;7.286;2023-02-28T11:47:48;101185.56;;;5.96;40.25
52855;BME280;38719;51.418;7.286;2023-02-28T11:50:33;101190.81;;;6.09;41.29
52855;BME280;38719;51.418;7.286;2023-02-28T11:53:12;101185.38;;;6.26;40.67
52855;BME280;38719;51.418;7.286;2023-02-28T11:55:45;101183.59;;;6.33;41.06
52855;BME280;38719;51.418;7.286;2023-02-28T11:58:26;101185.28;;;6.41;39.50
52855;BME280;38719;51.418;7.286;2023-02-28T12:01:06;101187.03;;;6.39;40.06
52855;BME280;38719;51.418;7.286;2023-02-28T12:03:43;101186.19;;;6.39;40.16
52855;BME280;38719;51.418;7.286;2023-02-28T12:06:22;101179.88;;;6.51;40.66
52855;BME280;38719;51.418;7.286;2023-02-28T12:09:02;101178.00;;;6.65;40.85
52855;BME280;38719;51.418;7.286;2023-02-28T12:11:43;101174.31;;;6.82;40.53
52855;BME280;38719;51.418;7.286;2023-02-28T12:14:47;101179.56;;;6.86;39.85
52855;BME280;38719;51.418;7.286;2023-02-28T12:17:23;101165.47;;;6.83;39.82
52855;BME280;38719;51.418;7.286;2023-02-28T12:19:59;101170.84;;;6.75;40.29
52855;BME280;38719;51.418;7.286;2023-02-28T12:22:31;101171.91;;;6.55;39.31
52855;BME280;38719;51.418;7.286;2023-02-28T12:25:38;101162.97;;;6.66;40.22
52855;BME280;38719;51.418;7.286;2023-02-28T12:28:09;101160.09;;;6.92;40.07
52855;BME280;38719;51.418;7.286;2023-02-28T12:30:41;101158.34;;;6.91;40.20
52855;BME280;38719;51.418;7.286;2023-02-28T12:33:16;101162.81;;;6.86;38.87
52855;BME280;38719;51.418;7.286;2023-02-28T12:35:48;101150.22;;;7.05;38.86
52855;BME280;38719;51.418;7.286;2023-02-28T12:38:21;101154.50;;;7.18;40.84
52855;BME280;38719;51.418;7.286;2023-02-28T12:40:53;101131.38;;;7.33;40.57
52855;BME280;38719;51.418;7.286;2023-02-28T12:43:27;101141.34;;;7.10;38.49
52855;BME280;38719;51.418;7.286;2023-02-28T12:45:59;101126.38;;;7.06;38.82
52855;BME280;38719;51.418;7.286;2023-02-28T12:48:37;101129.09;;;7.00;38.84
52855;BME280;38719;51.418;7.286;2023-02-28T12:51:07;101122.88;;;7.04;39.32
52855;BME280;38719;51.418;7.286;2023-02-28T12:53:46;101122.97;;;6.98;39.43
52855;BME280;38719;51.418;7.286;2023-02-28T12:56:20;101112.97;;;7.19;39.67
52855;BME280;38719;51.418;7.286;2023-02-28T12:58:52;101109.50;;;7.17;38.44
52855;BME280;38719;51.418;7.286;2023-02-28T13:01:38;101113.75;;;7.30;39.47
52855;BME280;38719;51.418;7.286;2023-02-28T13:04:34;101106.88;;;7.14;39.88
52855;BME280;38719;51.418;7.286;2023-02-28T13:07:24;101091.72;;;7.23;39.02
52855;BME280;38719;51.418;7.286;2023-02-28T13:10:02;101097.91;;;7.25;39.68
52855;BME280;38719;51.418;7.286;2023-02-28T13:12:33;101099.72;;;7.22;39.44
52855;BME280;38719;51.418;7.286;2023-02-28T13:15:07;101094.31;;;7.30;38.99
52855;BME280;38719;51.418;7.286;2023-02-28T13:17:39;101099.50;;;7.39;38.75
52855;BME280;38719;51.418;7.286;2023-02-28T13:20:16;101097.66;;;7.41;39.17
52855;BME280;38719;51.418;7.286;2023-02-28T13:22:46;101083.38;;;7.53;39.43